Time;durP1;ratioP1;P1;durP2;ratioP2;P2;SDS_P1;SDS_P2;PMS_P1;PMS_P2;Temp;Humidity;BMP_temperature;BMP_pressure;BME280_temperature;BME280_humidity;BME280_pressure;Samples;Min_cycle;Max_cycle;Signal;HPM_P1;HPM_P2
2023/01/25 00:01:21;;;;;;;83.30;31.50;;;;;;;-0.34;79.65;102569.72;682465;1259;139294;-82
2023/01/25 00:16:25;;;;;;;44.90;18.70;;;;;;;-0.50;79.92;102563.27;682510;1260;139092;-80
2023/01/25 00:31:40;;;;;;;37.30;16.40;;;;;;;-0.25;80.28;102552.13;682546;1264;140663;-81
2023/01/25 00:46:44;;;;;;;33.10;15.90;;;;;;;-0.24;80.21;102546.96;682721;1259;139198;-80
2023/01/25 01:01:48;;;;;;;36.70;17.20;;;;;;;-0.15;80.50;102542.25;682452;1259;138983;-80
2023/01/25 01:16:52;;;;;;;31.80;13.90;;;;;;;-0.15;80.45;102529.87;682478;1260;139151;-80
2023/01/25 01:31:58;;;;;;;;;;;;;;;-0.02;80.52;102518.08;682699;1263;139699;-81
2023/01/25 01:47:02;;;;;;;36.10;18.00;;;;;;;-0.20;80.40;102500.31;682711;1263;125330;-80
2023/01/25 02:02:06;;;;;;;41.50;18.10;;;;;;;-0.45;80.90;102472.98;682430;1264;139665;-81
2023/01/25 02:17:11;;;;;;;38.60;17.70;;;;;;;-0.22;80.91;102455.27;682448;1259;139098;-81
2023/01/25 02:32:14;;;;;;;35.70;16.90;;;;;;;-0.10;81.43;102437.11;682485;1260;139253;-81
2023/01/25 02:47:17;;;;;;;38.20;18.80;;;;;;;0.04;81.37;102426.65;682697;1263;139448;-81
2023/01/25 03:02:21;;;;;;;40.20;18.40;;;;;;;-0.16;81.54;102409.63;682284;1266;139865;-81
2023/01/25 03:17:25;;;;;;;28.30;14.00;;;;;;;-0.25;82.02;102409.72;682375;1259;139203;-81
2023/01/25 03:32:31;;;;;;;35.10;15.30;;;;;;;-0.28;82.66;102397.02;682688;1259;139034;-82
2023/01/25 03:47:43;;;;;;;40.10;19.10;;;;;;;-0.19;82.60;102384.38;682222;1259;139228;-82
2023/01/25 04:02:46;;;;;;;36.60;18.50;;;;;;;-0.07;82.48;102362.41;682654;1260;139253;-83
2023/01/25 04:17:52;;;;;;;;;;;;;;;-0.27;82.78;102349.03;682426;1263;141065;-80
2023/01/25 04:33:03;;;;;;;49.00;20.60;;;;;;;-0.18;83.24;102341.36;682621;1263;125699;-82
2023/01/25 04:48:09;;;;;;;50.10;20.00;;;;;;;0.00;83.20;102335.33;682446;1263;139381;-82
2023/01/25 05:03:13;;;;;;;49.30;21.40;;;;;;;0.06;83.11;102314.27;682432;1263;137926;-81
2023/01/25 05:18:17;;;;;;;53.20;21.80;;;;;;;-0.10;83.41;102286.06;682424;1263;138964;-82
2023/01/25 05:33:23;;;;;;;59.30;24.80;;;;;;;-0.05;83.98;102284.98;682284;1263;139362;-81
2023/01/25 05:48:26;;;;;;;45.80;20.80;;;;;;;-0.01;84.52;102274.44;682502;1264;140101;-81
2023/01/25 06:03:30;;;;;;;61.70;25.80;;;;;;;-0.07;84.96;102257.98;682531;1260;140000;-81
2023/01/25 06:18:34;;;;;;;56.00;26.30;;;;;;;0.01;85.32;102254.63;682146;1265;139129;-82
2023/01/25 06:34:03;;;;;;;54.20;24.90;;;;;;;-0.05;85.71;102238.35;682301;1263;138626;-82
2023/01/25 06:49:07;;;;;;;52.20;27.20;;;;;;;-0.05;86.23;102240.60;682075;1265;139880;-82
2023/01/25 07:04:11;;;;;;;97.10;49.40;;;;;;;0.00;86.82;102252.05;682539;1260;138831;-82
2023/01/25 07:19:16;;;;;;;53.20;23.20;;;;;;;0.16;86.31;102245.84;681802;1265;139039;-82
2023/01/25 07:34:20;;;;;;;62.80;26.20;;;;;;;0.12;86.86;102223.84;682415;1264;138842;-84
2023/01/25 07:49:23;;;;;;;57.00;24.30;;;;;;;0.18;86.84;102211.23;682325;1264;138961;-82
2023/01/25 08:04:27;;;;;;;52.40;23.90;;;;;;;0.20;87.72;102217.73;682526;1263;138956;-83
2023/01/25 08:19:30;;;;;;;53.90;26.20;;;;;;;0.32;87.30;102205.85;682423;1263;139143;-82
2023/01/25 08:34:34;;;;;;;51.70;24.50;;;;;;;0.38;87.22;102189.06;682350;1261;138777;-83
2023/01/25 08:49:37;;;;;;;61.10;26.80;;;;;;;0.38;87.20;102174.62;682259;1265;139168;-83
2023/01/25 09:04:41;;;;;;;43.10;24.50;;;;;;;0.44;87.23;102151.10;682453;1260;139785;-82
2023/01/25 09:19:44;;;;;;;52.00;24.60;;;;;;;0.57;87.48;102137.30;682293;1263;138724;-83
2023/01/25 09:34:47;;;;;;;66.80;32.90;;;;;;;0.61;87.25;102130.68;682028;1260;180411;-83
2023/01/25 09:49:54;;;;;;;55.20;27.30;;;;;;;0.76;87.15;102118.88;682374;1264;139282;-82
2023/01/25 10:05:00;;;;;;;;;;;;;;;0.96;86.93;102094.05;682503;1263;139181;-83
2023/01/25 10:20:19;;;;;;;86.30;40.40;;;;;;;1.07;86.76;102080.77;682470;1264;125447;-83
2023/01/25 10:35:28;;;;;;;83.20;40.00;;;;;;;1.23;87.21;102067.16;682218;1266;139541;-82
2023/01/25 10:50:42;;;;;;;78.80;33.80;;;;;;;1.38;86.49;102048.94;682464;1263;139265;-82
2023/01/25 11:05:53;;;;;;;111.40;49.60;;;;;;;1.31;86.27;102026.30;682463;1260;139210;-82
2023/01/25 11:21:17;;;;;;;72.20;30.20;;;;;;;1.30;86.22;102001.16;682351;1260;139040;-82
2023/01/25 11:36:52;;;;;;;56.60;26.70;;;;;;;1.38;86.30;101972.21;682347;1264;139217;-82
2023/01/25 11:52:34;;;;;;;70.70;32.40;;;;;;;1.36;86.09;101947.41;682589;1262;139068;-84
2023/01/25 12:07:55;;;;;;;55.70;28.60;;;;;;;1.65;85.80;101926.73;682229;1260;139084;-81
2023/01/25 12:23:08;;;;;;;67.60;33.20;;;;;;;1.66;85.57;101895.50;682379;1263;139030;-82
2023/01/25 12:38:22;;;;;;;64.20;32.20;;;;;;;1.51;86.25;101869.81;682548;1262;138847;-82
2023/01/25 12:53:32;;;;;;;143.00;58.80;;;;;;;1.21;85.98;101844.67;682622;1263;139329;-82
2023/01/25 13:08:38;;;;;;;64.90;28.60;;;;;;;1.29;86.89;101824.83;682539;1263;139055;-82
2023/01/25 13:23:45;;;;;;;60.00;26.70;;;;;;;1.30;87.00;101801.89;682623;1260;139157;-81
2023/01/25 13:38:50;;;;;;;65.10;28.80;;;;;;;1.26;87.02;101779.75;682599;1261;139361;-82
2023/01/25 13:53:57;;;;;;;94.60;54.90;;;;;;;1.26;87.22;101763.54;682728;1261;139108;-82
2023/01/25 14:09:06;;;;;;;;;;;;;;;1.19;88.01;101749.75;682710;1263;139551;-82
2023/01/25 14:24:15;;;;;;;68.40;34.80;;;;;;;1.28;88.65;101734.70;682584;1260;125514;-82
2023/01/25 14:39:27;;;;;;;45.40;24.10;;;;;;;1.27;88.45;101716.46;682664;1263;139157;-81
2023/01/25 14:54:34;;;;;;;45.80;23.80;;;;;;;1.19;88.91;101709.96;682279;1261;140034;-81
2023/01/25 15:09:42;;;;;;;68.70;30.00;;;;;;;1.15;89.50;101691.59;682656;1264;138843;-82
2023/01/25 15:24:45;;;;;;;72.40;32.70;;;;;;;1.17;89.49;101680.71;682432;1262;139783;-82
2023/01/25 15:39:59;;;;;;;71.90;30.80;;;;;;;1.25;89.52;101664.98;682574;1263;138993;-82
2023/01/25 15:55:02;;;;;;;108.10;42.10;;;;;;;1.22;89.42;101664.03;682570;1263;138961;-82
2023/01/25 16:10:18;;;;;;;64.00;28.30;;;;;;;1.09;89.71;101648.16;682443;1273;139843;-81
2023/01/25 16:25:22;;;;;;;59.20;26.80;;;;;;;1.13;90.07;101634.45;682248;1259;139565;-82
2023/01/25 16:40:35;;;;;;;46.60;22.30;;;;;;;1.16;89.56;101620.22;682920;1259;140091;-83
2023/01/25 16:55:38;;;;;;;321.70;96.30;;;;;;;1.30;90.35;101610.54;682239;1260;139103;-82
2023/01/25 17:10:42;;;;;;;120.50;41.40;;;;;;;1.42;90.40;101598.31;682343;1264;139802;-82
2023/01/25 17:25:45;;;;;;;66.40;26.60;;;;;;;1.46;90.11;101581.10;682198;1262;138931;-82
2023/01/25 17:40:49;;;;;;;83.10;34.60;;;;;;;1.54;90.67;101570.36;682532;1260;139015;-81
2023/01/25 17:55:52;;;;;;;126.50;50.40;;;;;;;1.54;90.23;101552.27;682595;1263;138706;-81
2023/01/25 18:10:58;;;;;;;130.50;46.60;;;;;;;1.50;90.61;101543.77;682893;1259;139090;-81
2023/01/25 18:26:01;;;;;;;123.00;46.60;;;;;;;1.29;91.30;101529.02;682436;1263;139907;-81
2023/01/25 18:41:06;;;;;;;102.20;41.70;;;;;;;1.33;92.34;101500.13;682384;1265;139080;-81
2023/01/25 18:56:15;;;;;;;97.30;40.40;;;;;;;1.45;92.06;101485.30;682264;1263;139195;-82
2023/01/25 19:11:22;;;;;;;85.40;36.60;;;;;;;1.44;92.12;101457.73;682165;1263;138977;-81
2023/01/25 19:26:26;;;;;;;104.50;42.00;;;;;;;1.40;93.01;101450.63;682775;1263;138883;-82
2023/01/25 19:41:30;;;;;;;92.20;33.40;;;;;;;1.42;92.66;101434.51;682415;1259;141342;-82
2023/01/25 19:56:39;;;;;;;92.70;37.20;;;;;;;1.29;93.19;101416.48;682590;1263;139586;-82
2023/01/25 20:11:45;;;;;;;99.80;38.40;;;;;;;1.21;93.66;101397.40;682385;1260;139938;-82
2023/01/25 20:26:50;;;;;;;94.30;36.20;;;;;;;1.27;94.09;101402.40;682700;1263;138984;-82
2023/01/25 20:41:57;;;;;;;88.00;32.60;;;;;;;1.36;93.50;101390.92;682844;1260;139385;-82
2023/01/25 20:57:03;;;;;;;85.60;36.30;;;;;;;1.13;93.82;101385.45;682720;1263;139604;-82
2023/01/25 21:12:08;;;;;;;104.70;38.20;;;;;;;1.02;94.58;101383.17;682466;1263;139542;-81
2023/01/25 21:27:12;;;;;;;94.40;37.30;;;;;;;0.99;95.55;101368.46;682240;1263;160400;-82
2023/01/25 21:42:15;;;;;;;94.00;35.80;;;;;;;1.19;95.43;101354.04;682347;1263;141956;-82
2023/01/25 21:57:19;;;;;;;123.00;47.80;;;;;;;1.34;94.30;101339.61;682559;1263;138892;-82
2023/01/25 22:12:22;;;;;;;107.60;34.50;;;;;;;1.43;94.02;101324.15;682301;1263;139086;-81
2023/01/25 22:27:31;;;;;;;99.10;34.70;;;;;;;1.42;94.39;101334.35;682584;1265;139307;-80
2023/01/25 22:42:35;;;;;;;111.60;38.40;;;;;;;1.36;94.16;101329.56;682434;1260;139965;-81
2023/01/25 22:57:38;;;;;;;117.30;38.90;;;;;;;1.37;94.07;101298.66;682566;1260;139639;-82
2023/01/25 23:12:41;;;;;;;110.40;37.40;;;;;;;1.41;94.15;101274.58;682661;1263;139734;-81
2023/01/25 23:28:15;;;;;;;112.30;36.00;;;;;;;1.40;94.27;101267.20;682476;1265;139065;-80
2023/01/25 23:43:18;;;;;;;99.00;36.40;;;;;;;1.31;95.32;101251.10;682344;1264;140236;-81
2023/01/25 23:58:22;;;;;;;151.10;48.90;;;;;;;1.39;95.91;101237.23;682307;1262;138950;-81
